sensor_id;sensor_type;location;lat;lon;timestamp;pressure;altitude;pressure_sealevel;temperature;humidity
36828;BME280;22766;48.042;11.192;2023-11-22T00:00:17;95072.00;;;5.66;100.00
36828;BME280;22766;48.042;11.192;2023-11-22T00:02:44;95077.09;;;5.66;100.00
36828;BME280;22766;48.042;11.192;2023-11-22T00:05:11;95071.19;;;5.66;100.00
36828;BME280;22766;48.042;11.192;2023-11-22T00:07:38;95068.97;;;5.61;100.00
36828;BME280;22766;48.042;11.192;2023-11-22T00:10:05;95070.84;;;5.59;100.00
36828;BME280;22766;48.042;11.192;2023-11-22T00:12:32;95069.41;;;5.66;100.00
36828;BME280;22766;48.042;11.192;2023-11-22T00:15:04;95068.38;;;5.69;100.00
36828;BME280;22766;48.042;11.192;2023-11-22T00:17:35;95071.06;;;5.67;100.00
36828;BME280;22766;48.042;11.192;2023-11-22T00:20:03;95074.19;;;5.71;100.00
36828;BME280;22766;48.042;11.192;2023-11-22T00:22:32;95078.88;;;5.66;100.00
36828;BME280;22766;48.042;11.192;2023-11-22T00:25:00;95075.25;;;5.68;100.00
36828;BME280;22766;48.042;11.192;2023-11-22T00:27:28;95073.06;;;5.64;100.00
36828;BME280;22766;48.042;11.192;2023-11-22T00:29:57;95087.59;;;5.63;100.00
36828;BME280;22766;48.042;11.192;2023-11-22T00:32:24;95074.53;;;5.66;100.00
36828;BME280;22766;48.042;11.192;2023-11-22T00:34:52;95082.72;;;5.60;100.00
36828;BME280;22766;48.042;11.192;2023-11-22T00:37:19;95078.19;;;5.64;100.00
36828;BME280;22766;48.042;11.192;2023-11-22T00:39:46;95086.78;;;5.63;100.00
36828;BME280;22766;48.042;11.192;2023-11-22T00:42:13;95087.59;;;5.63;100.00
36828;BME280;22766;48.042;11.192;2023-11-22T00:44:40;95089.91;;;5.66;100.00
36828;BME280;22766;48.042;11.192;2023-11-22T00:47:07;95084.66;;;5.68;100.00
36828;BME280;22766;48.042;11.192;2023-11-22T00:49:34;95086.44;;;5.67;100.00
36828;BME280;22766;48.042;11.192;2023-11-22T00:52:01;95088.44;;;5.64;100.00
36828;BME280;22766;48.042;11.192;2023-11-22T00:54:29;95082.59;;;5.62;100.00
36828;BME280;22766;48.042;11.192;2023-11-22T00:56:56;95088.91;;;5.58;100.00
36828;BME280;22766;48.042;11.192;2023-11-22T00:59:23;95080.75;;;5.64;100.00
36828;BME280;22766;48.042;11.192;2023-11-22T01:01:50;95091.91;;;5.63;100.00
36828;BME280;22766;48.042;11.192;2023-11-22T01:04:17;95092.84;;;5.62;100.00
36828;BME280;22766;48.042;11.192;2023-11-22T01:06:44;95097.16;;;5.61;100.00
36828;BME280;22766;48.042;11.192;2023-11-22T01:09:10;95100.63;;;5.60;100.00
36828;BME280;22766;48.042;11.192;2023-11-22T01:11:40;95100.53;;;5.62;100.00
36828;BME280;22766;48.042;11.192;2023-11-22T01:14:07;95103.09;;;5.62;100.00
36828;BME280;22766;48.042;11.192;2023-11-22T01:16:34;95097.38;;;5.58;100.00
36828;BME280;22766;48.042;11.192;2023-11-22T01:19:03;95091.09;;;5.62;100.00
36828;BME280;22766;48.042;11.192;2023-11-22T01:21:30;95095.63;;;5.59;100.00
36828;BME280;22766;48.042;11.192;2023-11-22T01:23:58;95097.16;;;5.61;100.00
36828;BME280;22766;48.042;11.192;2023-11-22T01:26:25;95099.59;;;5.63;100.00
36828;BME280;22766;48.042;11.192;2023-11-22T01:28:52;95096.22;;;5.62;100.00
36828;BME280;22766;48.042;11.192;2023-11-22T01:31:19;95108.53;;;5.68;100.00
36828;BME280;22766;48.042;11.192;2023-11-22T01:33:49;95107.59;;;5.81;100.00
36828;BME280;22766;48.042;11.192;2023-11-22T01:36:16;95116.09;;;5.81;100.00
36828;BME280;22766;48.042;11.192;2023-11-22T01:38:43;95117.34;;;5.76;100.00
36828;BME280;22766;48.042;11.192;2023-11-22T01:41:11;95118.31;;;5.75;100.00
36828;BME280;22766;48.042;11.192;2023-11-22T01:43:54;95116.88;;;5.82;100.00
36828;BME280;22766;48.042;11.192;2023-11-22T01:46:22;95116.22;;;5.68;100.00
36828;BME280;22766;48.042;11.192;2023-11-22T01:48:51;95117.38;;;5.64;100.00
36828;BME280;22766;48.042;11.192;2023-11-22T01:51:22;95120.19;;;5.61;100.00
36828;BME280;22766;48.042;11.192;2023-11-22T01:53:53;95120.44;;;5.58;100.00
36828;BME280;22766;48.042;11.192;2023-11-22T01:56:22;95122.06;;;5.59;100.00
36828;BME280;22766;48.042;11.192;2023-11-22T01:58:50;95123.81;;;5.59;100.00
36828;BME280;22766;48.042;11.192;2023-11-22T02:01:17;95120.34;;;5.60;100.00
36828;BME280;22766;48.042;11.192;2023-11-22T02:03:45;95120.34;;;5.60;100.00
36828;BME280;22766;48.042;11.192;2023-11-22T02:06:14;95123.47;;;5.63;100.00
36828;BME280;22766;48.042;11.192;2023-11-22T02:08:42;95125.06;;;5.64;100.00
36828;BME280;22766;48.042;11.192;2023-11-22T02:11:10;95125.91;;;5.65;100.00
36828;BME280;22766;48.042;11.192;2023-11-22T02:13:37;95126.16;;;5.62;100.00
36828;BME280;22766;48.042;11.192;2023-11-22T02:16:07;95129.28;;;5.65;100.00
36828;BME280;22766;48.042;11.192;2023-11-22T02:18:34;95127.53;;;5.66;100.00
36828;BME280;22766;48.042;11.192;2023-11-22T02:21:05;95126.03;;;5.63;100.00
36828;BME280;22766;48.042;11.192;2023-11-22T02:23:32;95128.59;;;5.63;100.00
36828;BME280;22766;48.042;11.192;2023-11-22T02:25:59;95131.16;;;5.63;100.00
36828;BME280;22766;48.042;11.192;2023-11-22T02:28:27;95128.72;;;5.62;100.00
36828;BME280;22766;48.042;11.192;2023-11-22T02:30:53;95134.53;;;5.64;100.00
36828;BME280;22766;48.042;11.192;2023-11-22T02:33:21;95132.66;;;5.66;100.00
36828;BME280;22766;48.042;11.192;2023-11-22T02:35:48;95133.44;;;5.66;100.00
36828;BME280;22766;48.042;11.192;2023-11-22T02:38:16;95133.09;;;5.71;100.00
36828;BME280;22766;48.042;11.192;2023-11-22T02:40:44;95129.63;;;5.61;100.00
36828;BME280;22766;48.042;11.192;2023-11-22T02:43:12;95133.22;;;5.69;100.00
36828;BME280;22766;48.042;11.192;2023-11-22T02:45:38;95136.72;;;5.68;100.00
36828;BME280;22766;48.042;11.192;2023-11-22T02:48:08;95136.59;;;5.59;100.00
36828;BME280;22766;48.042;11.192;2023-11-22T02:50:36;95137.56;;;5.47;100.00
36828;BME280;22766;48.042;11.192;2023-11-22T02:53:06;95135.59;;;5.39;100.00
36828;BME280;22766;48.042;11.192;2023-11-22T02:55:34;95150.03;;;5.40;100.00
36828;BME280;22766;48.042;11.192;2023-11-22T02:58:01;95148.63;;;5.25;100.00
36828;BME280;22766;48.042;11.192;2023-11-22T03:00:28;95155.38;;;5.15;100.00
36828;BME280;22766;48.042;11.192;2023-11-22T03:02:56;95160.72;;;5.01;100.00
36828;BME280;22766;48.042;11.192;2023-11-22T03:05:23;95160.09;;;4.87;100.00
36828;BME280;22766;48.042;11.192;2023-11-22T03:07:51;95162.44;;;4.79;100.00
36828;BME280;22766;48.042;11.192;2023-11-22T03:10:18;95171.03;;;4.78;100.00
36828;BME280;22766;48.042;11.192;2023-11-22T03:12:45;95170.06;;;4.67;100.00
36828;BME280;22766;48.042;11.192;2023-11-22T03:15:12;95178.22;;;4.61;100.00
36828;BME280;22766;48.042;11.192;2023-11-22T03:17:39;95175.19;;;4.67;100.00
36828;BME280;22766;48.042;11.192;2023-11-22T03:20:06;95186.81;;;4.71;100.00
36828;BME280;22766;48.042;11.192;2023-11-22T03:22:36;95192.03;;;4.70;100.00
36828;BME280;22766;48.042;11.192;2023-11-22T03:25:03;95196.09;;;4.61;100.00
36828;BME280;22766;48.042;11.192;2023-11-22T03:27:30;95197.06;;;4.37;100.00
36828;BME280;22766;48.042;11.192;2023-11-22T03:29:57;95200.75;;;4.33;100.00
36828;BME280;22766;48.042;11.192;2023-11-22T03:32:24;95197.28;;;4.34;100.00
36828;BME280;22766;48.042;11.192;2023-11-22T03:34:51;95204.03;;;4.35;100.00
36828;BME280;22766;48.042;11.192;2023-11-22T03:37:19;95212.72;;;4.32;100.00
36828;BME280;22766;48.042;11.192;2023-11-22T03:39:46;95211.69;;;4.11;100.00
36828;BME280;22766;48.042;11.192;2023-11-22T03:42:15;95212.00;;;4.07;100.00
36828;BME280;22766;48.042;11.192;2023-11-22T03:44:44;95215.97;;;3.74;100.00
36828;BME280;22766;48.042;11.192;2023-11-22T03:47:11;95225.41;;;3.61;100.00
36828;BME280;22766;48.042;11.192;2023-11-22T03:49:41;95222.56;;;3.53;100.00
36828;BME280;22766;48.042;11.192;2023-11-22T03:52:10;95231.78;;;3.43;100.00
36828;BME280;22766;48.042;11.192;2023-11-22T03:54:38;95236.69;;;3.34;100.00
36828;BME280;22766;48.042;11.192;2023-11-22T03:57:05;95241.19;;;3.30;100.00
36828;BME280;22766;48.042;11.192;2023-11-22T03:59:34;95244.63;;;3.29;100.00
36828;BME280;22766;48.042;11.192;2023-11-22T04:02:01;95244.03;;;3.13;100.00
36828;BME280;22766;48.042;11.192;2023-11-22T04:04:28;95250.97;;;3.11;100.00
36828;BME280;22766;48.042;11.192;2023-11-22T04:06:55;95264.63;;;3.10;100.00
36828;BME280;22766;48.042;11.192;2023-11-22T04:09:21;95260.56;;;3.08;100.00
36828;BME280;22766;48.042;11.192;2023-11-22T04:11:48;95261.25;;;3.10;100.00
36828;BME280;22766;48.042;11.192;2023-11-22T04:14:15;95268.00;;;3.11;100.00
36828;BME280;22766;48.042;11.192;2023-11-22T04:16:42;95269.22;;;3.05;100.00
36828;BME280;22766;48.042;11.192;2023-11-22T04:19:09;95270.34;;;3.14;100.00
36828;BME280;22766;48.042;11.192;2023-11-22T04:21:37;95266.06;;;3.14;100.00
36828;BME280;22766;48.042;11.192;2023-11-22T04:24:04;95267.59;;;3.17;100.00
36828;BME280;22766;48.042;11.192;2023-11-22T04:26:31;95279.31;;;3.07;100.00
36828;BME280;22766;48.042;11.192;2023-11-22T04:28:58;95290.53;;;3.04;100.00
36828;BME280;22766;48.042;11.192;2023-11-22T04:31:25;95293.00;;;3.06;100.00
36828;BME280;22766;48.042;11.192;2023-11-22T04:33:52;95288.91;;;3.03;100.00
36828;BME280;22766;48.042;11.192;2023-11-22T04:36:21;95290.41;;;2.93;100.00
36828;BME280;22766;48.042;11.192;2023-11-22T04:38:51;95291.72;;;2.86;100.00
36828;BME280;22766;48.042;11.192;2023-11-22T04:41:17;95292.06;;;2.94;100.00
36828;BME280;22766;48.042;11.192;2023-11-22T04:43:45;95293.56;;;2.97;100.00
36828;BME280;22766;48.042;11.192;2023-11-22T04:46:11;95299.38;;;2.86;100.00
36828;BME280;22766;48.042;11.192;2023-11-22T04:48:39;95309.38;;;2.89;100.00
36828;BME280;22766;48.042;11.192;2023-11-22T04:51:07;95307.25;;;2.83;100.00
36828;BME280;22766;48.042;11.192;2023-11-22T04:53:34;95313.13;;;2.83;100.00
36828;BME280;22766;48.042;11.192;2023-11-22T04:56:01;95317.63;;;2.80;100.00
36828;BME280;22766;48.042;11.192;2023-11-22T04:58:33;95320.66;;;2.72;100.00
36828;BME280;22766;48.042;11.192;2023-11-22T05:01:00;95333.16;;;2.63;100.00
36828;BME280;22766;48.042;11.192;2023-11-22T05:03:28;95337.28;;;2.51;100.00
36828;BME280;22766;48.042;11.192;2023-11-22T05:05:55;95339.94;;;2.50;100.00
36828;BME280;22766;48.042;11.192;2023-11-22T05:08:22;95337.78;;;2.44;100.00
36828;BME280;22766;48.042;11.192;2023-11-22T05:10:49;95337.16;;;2.40;100.00
36828;BME280;22766;48.042;11.192;2023-11-22T05:13:17;95340.06;;;2.34;100.00
36828;BME280;22766;48.042;11.192;2023-11-22T05:15:44;95345.38;;;2.31;100.00
36828;BME280;22766;48.042;11.192;2023-11-22T05:18:10;95351.47;;;2.29;100.00
36828;BME280;22766;48.042;11.192;2023-11-22T05:20:37;95353.84;;;2.18;100.00
36828;BME280;22766;48.042;11.192;2023-11-22T05:23:04;95358.59;;;2.24;100.00
36828;BME280;22766;48.042;11.192;2023-11-22T05:25:31;95354.09;;;2.27;100.00
36828;BME280;22766;48.042;11.192;2023-11-22T05:27:57;95363.78;;;2.22;100.00
36828;BME280;22766;48.042;11.192;2023-11-22T05:30:25;95364.13;;;2.16;100.00
36828;BME280;22766;48.042;11.192;2023-11-22T05:32:52;95369.31;;;2.15;100.00
36828;BME280;22766;48.042;11.192;2023-11-22T05:35:19;95374.41;;;2.15;100.00
36828;BME280;22766;48.042;11.192;2023-11-22T05:37:47;95378.06;;;2.11;100.00
36828;BME280;22766;48.042;11.192;2023-11-22T05:40:14;95384.84;;;2.24;100.00
36828;BME280;22766;48.042;11.192;2023-11-22T05:42:42;95378.75;;;2.27;100.00
36828;BME280;22766;48.042;11.192;2023-11-22T05:45:10;95386.66;;;2.36;100.00
36828;BME280;22766;48.042;11.192;2023-11-22T05:47:36;95391.84;;;2.35;100.00
36828;BME280;22766;48.042;11.192;2023-11-22T05:50:05;95396.69;;;2.39;100.00
36828;BME280;22766;48.042;11.192;2023-11-22T05:52:32;95398.94;;;2.44;100.00
36828;BME280;22766;48.042;11.192;2023-11-22T05:54:59;95402.78;;;2.37;100.00
36828;BME280;22766;48.042;11.192;2023-11-22T05:57:30;95407.88;;;2.37;100.00
36828;BME280;22766;48.042;11.192;2023-11-22T05:59:57;95409.50;;;2.38;100.00
36828;BME280;22766;48.042;11.192;2023-11-22T06:02:24;95412.88;;;2.38;100.00
36828;BME280;22766;48.042;11.192;2023-11-22T06:04:50;95410.97;;;2.28;100.00
36828;BME280;22766;48.042;11.192;2023-11-22T06:07:17;95405.78;;;2.29;100.00
36828;BME280;22766;48.042;11.192;2023-11-22T06:09:44;95416.06;;;2.28;100.00
36828;BME280;22766;48.042;11.192;2023-11-22T06:12:11;95415.50;;;2.37;100.00
36828;BME280;22766;48.042;11.192;2023-11-22T06:14:38;95414.69;;;2.36;100.00
36828;BME280;22766;48.042;11.192;2023-11-22T06:17:05;95415.41;;;2.38;100.00
36828;BME280;22766;48.042;11.192;2023-11-22T06:19:31;95421.88;;;2.44;100.00
36828;BME280;22766;48.042;11.192;2023-11-22T06:21:58;95431.06;;;2.46;100.00
36828;BME280;22766;48.042;11.192;2023-11-22T06:24:25;95430.97;;;2.34;100.00
36828;BME280;22766;48.042;11.192;2023-11-22T06:26:52;95438.72;;;2.32;100.00
36828;BME280;22766;48.042;11.192;2023-11-22T06:29:19;95435.69;;;2.40;100.00
36828;BME280;22766;48.042;11.192;2023-11-22T06:31:46;95443.34;;;2.40;100.00
36828;BME280;22766;48.042;11.192;2023-11-22T06:34:13;95437.06;;;2.45;100.00
36828;BME280;22766;48.042;11.192;2023-11-22T06:36:40;95437.41;;;2.53;100.00
36828;BME280;22766;48.042;11.192;2023-11-22T06:39:07;95445.00;;;2.41;100.00
36828;BME280;22766;48.042;11.192;2023-11-22T06:41:35;95449.63;;;2.34;100.00
36828;BME280;22766;48.042;11.192;2023-11-22T06:44:02;95446.34;;;2.32;100.00
36828;BME280;22766;48.042;11.192;2023-11-22T06:46:30;95447.63;;;2.25;100.00
36828;BME280;22766;48.042;11.192;2023-11-22T06:48:56;95458.25;;;2.32;100.00
36828;BME280;22766;48.042;11.192;2023-11-22T06:51:24;95473.13;;;2.39;100.00
36828;BME280;22766;48.042;11.192;2023-11-22T06:53:51;95482.56;;;2.51;100.00
36828;BME280;22766;48.042;11.192;2023-11-22T06:56:22;95482.66;;;2.50;100.00
36828;BME280;22766;48.042;11.192;2023-11-22T06:58:49;95485.00;;;2.53;100.00
36828;BME280;22766;48.042;11.192;2023-11-22T07:01:17;95481.47;;;2.55;100.00
36828;BME280;22766;48.042;11.192;2023-11-22T07:03:45;95477.19;;;2.42;100.00
36828;BME280;22766;48.042;11.192;2023-11-22T07:06:11;95484.09;;;2.40;100.00
36828;BME280;22766;48.042;11.192;2023-11-22T07:08:38;95477.19;;;2.42;100.00
36828;BME280;22766;48.042;11.192;2023-11-22T07:11:05;95483.00;;;2.44;100.00
36828;BME280;22766;48.042;11.192;2023-11-22T07:13:36;95490.47;;;2.33;100.00
36828;BME280;22766;48.042;11.192;2023-11-22T07:16:05;95500.41;;;2.23;100.00
36828;BME280;22766;48.042;11.192;2023-11-22T07:18:33;95502.84;;;2.25;100.00
36828;BME280;22766;48.042;11.192;2023-11-22T07:21:00;95507.59;;;2.31;100.00
36828;BME280;22766;48.042;11.192;2023-11-22T07:23:27;95510.13;;;2.31;100.00
36828;BME280;22766;48.042;11.192;2023-11-22T07:25:55;95502.78;;;2.40;100.00
36828;BME280;22766;48.042;11.192;2023-11-22T07:28:22;95504.94;;;2.32;100.00
36828;BME280;22766;48.042;11.192;2023-11-22T07:30:49;95520.59;;;2.40;100.00
36828;BME280;22766;48.042;11.192;2023-11-22T07:33:16;95527.41;;;2.40;100.00
36828;BME280;22766;48.042;11.192;2023-11-22T07:35:43;95525.22;;;2.34;100.00
36828;BME280;22766;48.042;11.192;2023-11-22T07:38:10;95531.78;;;2.38;100.00
36828;BME280;22766;48.042;11.192;2023-11-22T07:40:38;95544.63;;;2.22;100.00
36828;BME280;22766;48.042;11.192;2023-11-22T07:43:05;95551.59;;;2.19;100.00
36828;BME280;22766;48.042;11.192;2023-11-22T07:45:32;95565.78;;;2.23;100.00
36828;BME280;22766;48.042;11.192;2023-11-22T07:47:58;95570.09;;;2.22;100.00
36828;BME280;22766;48.042;11.192;2023-11-22T07:50:30;95570.53;;;2.29;100.00
36828;BME280;22766;48.042;11.192;2023-11-22T07:52:57;95567.63;;;2.21;100.00
36828;BME280;22766;48.042;11.192;2023-11-22T07:55:23;95563.53;;;2.18;100.00
36828;BME280;22766;48.042;11.192;2023-11-22T07:57:50;95559.25;;;2.19;100.00
36828;BME280;22766;48.042;11.192;2023-11-22T08:00:22;95562.34;;;2.24;100.00
36828;BME280;22766;48.042;11.192;2023-11-22T08:02:49;95577.81;;;2.21;100.00
36828;BME280;22766;48.042;11.192;2023-11-22T08:05:16;95579.56;;;2.20;100.00
36828;BME280;22766;48.042;11.192;2023-11-22T08:07:43;95586.53;;;2.17;100.00
36828;BME280;22766;48.042;11.192;2023-11-22T08:10:14;95588.63;;;2.24;100.00
36828;BME280;22766;48.042;11.192;2023-11-22T08:12:46;95597.38;;;2.20;100.00
36828;BME280;22766;48.042;11.192;2023-11-22T08:15:14;95605.09;;;2.19;100.00
36828;BME280;22766;48.042;11.192;2023-11-22T08:17:41;95615.38;;;2.17;100.00
36828;BME280;22766;48.042;11.192;2023-11-22T08:20:09;95607.19;;;2.12;100.00
36828;BME280;22766;48.042;11.192;2023-11-22T08:22:41;95613.41;;;2.22;100.00
36828;BME280;22766;48.042;11.192;2023-11-22T08:25:08;95617.75;;;2.20;100.00
36828;BME280;22766;48.042;11.192;2023-11-22T08:27:40;95614.38;;;2.20;100.00
36828;BME280;22766;48.042;11.192;2023-11-22T08:30:09;95617.81;;;2.19;100.00
36828;BME280;22766;48.042;11.192;2023-11-22T08:32:41;95615.84;;;2.24;100.00
36828;BME280;22766;48.042;11.192;2023-11-22T08:35:09;95611.00;;;2.19;100.00
36828;BME280;22766;48.042;11.192;2023-11-22T08:37:39;95615.94;;;2.22;100.00
36828;BME280;22766;48.042;11.192;2023-11-22T08:40:08;95612.72;;;2.19;100.00
36828;BME280;22766;48.042;11.192;2023-11-22T08:42:38;95601.47;;;2.23;100.00
36828;BME280;22766;48.042;11.192;2023-11-22T08:45:05;95617.22;;;2.29;100.00
36828;BME280;22766;48.042;11.192;2023-11-22T08:47:32;95638.88;;;2.22;100.00
36828;BME280;22766;48.042;11.192;2023-11-22T08:49:59;95637.69;;;2.28;100.00
36828;BME280;22766;48.042;11.192;2023-11-22T08:52:26;95649.81;;;2.38;100.00
36828;BME280;22766;48.042;11.192;2023-11-22T08:54:52;95646.78;;;2.32;100.00
36828;BME280;22766;48.042;11.192;2023-11-22T08:57:19;95649.28;;;2.33;100.00
36828;BME280;22766;48.042;11.192;2023-11-22T08:59:47;95645.16;;;2.31;100.00
36828;BME280;22766;48.042;11.192;2023-11-22T09:02:15;95655.00;;;2.37;100.00
36828;BME280;22766;48.042;11.192;2023-11-22T09:04:42;95656.91;;;2.33;100.00
36828;BME280;22766;48.042;11.192;2023-11-22T09:07:08;95656.00;;;2.34;100.00
36828;BME280;22766;48.042;11.192;2023-11-22T09:09:36;95651.47;;;2.39;100.00
36828;BME280;22766;48.042;11.192;2023-11-22T09:12:03;95650.00;;;2.35;100.00
36828;BME280;22766;48.042;11.192;2023-11-22T09:14:40;95656.63;;;2.24;100.00
36828;BME280;22766;48.042;11.192;2023-11-22T09:17:08;95662.19;;;2.15;100.00
36828;BME280;22766;48.042;11.192;2023-11-22T09:19:36;95658.34;;;2.23;100.00
36828;BME280;22766;48.042;11.192;2023-11-22T09:22:04;95668.28;;;2.28;100.00
36828;BME280;22766;48.042;11.192;2023-11-22T09:24:32;95668.19;;;2.29;100.00
36828;BME280;22766;48.042;11.192;2023-11-22T09:27:00;95677.25;;;2.04;100.00
36828;BME280;22766;48.042;11.192;2023-11-22T09:29:29;95683.09;;;2.06;100.00
36828;BME280;22766;48.042;11.192;2023-11-22T09:31:55;95692.22;;;2.10;100.00
36828;BME280;22766;48.042;11.192;2023-11-22T09:34:23;95690.22;;;2.15;100.00
36828;BME280;22766;48.042;11.192;2023-11-22T09:36:51;95691.31;;;2.11;100.00
36828;BME280;22766;48.042;11.192;2023-11-22T09:39:17;95695.03;;;2.05;100.00
36828;BME280;22766;48.042;11.192;2023-11-22T09:41:48;95703.31;;;1.93;100.00
36828;BME280;22766;48.042;11.192;2023-11-22T09:44:15;95707.34;;;1.97;100.00
36828;BME280;22766;48.042;11.192;2023-11-22T09:46:43;95708.00;;;2.01;100.00
36828;BME280;22766;48.042;11.192;2023-11-22T09:49:15;95708.66;;;2.04;100.00
36828;BME280;22766;48.042;11.192;2023-11-22T09:51:47;95709.16;;;2.11;100.00
36828;BME280;22766;48.042;11.192;2023-11-22T09:54:16;95710.22;;;2.07;100.00
36828;BME280;22766;48.042;11.192;2023-11-22T09:56:45;95703.56;;;2.04;100.00
36828;BME280;22766;48.042;11.192;2023-11-22T09:59:18;95702.75;;;1.88;100.00
36828;BME280;22766;48.042;11.192;2023-11-22T10:01:50;95708.66;;;1.88;100.00
36828;BME280;22766;48.042;11.192;2023-11-22T10:04:19;95710.88;;;1.95;100.00
36828;BME280;22766;48.042;11.192;2023-11-22T10:06:46;95707.75;;;1.89;100.00
36828;BME280;22766;48.042;11.192;2023-11-22T10:09:13;95706.59;;;1.95;100.00
36828;BME280;22766;48.042;11.192;2023-11-22T10:11:41;95706.09;;;2.04;100.00
36828;BME280;22766;48.042;11.192;2023-11-22T10:14:10;95708.47;;;2.07;100.00
36828;BME280;22766;48.042;11.192;2023-11-22T10:16:37;95710.59;;;2.15;100.00
36828;BME280;22766;48.042;11.192;2023-11-22T10:19:04;95704.59;;;2.16;100.00
36828;BME280;22766;48.042;11.192;2023-11-22T10:21:34;95705.09;;;2.22;100.00
36828;BME280;22766;48.042;11.192;2023-11-22T10:24:02;95701.88;;;2.19;100.00
36828;BME280;22766;48.042;11.192;2023-11-22T10:26:30;95700.53;;;2.43;100.00
36828;BME280;22766;48.042;11.192;2023-11-22T10:28:58;95703.84;;;2.29;100.00
36828;BME280;22766;48.042;11.192;2023-11-22T10:31:25;95714.59;;;2.34;100.00
36828;BME280;22766;48.042;11.192;2023-11-22T10:33:53;95709.38;;;2.22;100.00
36828;BME280;22766;48.042;11.192;2023-11-22T10:36:21;95714.28;;;2.25;100.00
36828;BME280;22766;48.042;11.192;2023-11-22T10:38:48;95710.97;;;2.38;100.00
36828;BME280;22766;48.042;11.192;2023-11-22T10:41:15;95701.59;;;2.39;100.00
36828;BME280;22766;48.042;11.192;2023-11-22T10:43:44;95713.34;;;2.41;100.00
36828;BME280;22766;48.042;11.192;2023-11-22T10:46:12;95715.66;;;2.30;100.00
36828;BME280;22766;48.042;11.192;2023-11-22T10:48:40;95721.41;;;2.34;100.00
36828;BME280;22766;48.042;11.192;2023-11-22T10:51:12;95721.91;;;2.40;100.00
36828;BME280;22766;48.042;11.192;2023-11-22T10:53:47;95725.53;;;2.36;100.00
36828;BME280;22766;48.042;11.192;2023-11-22T10:56:17;95733.56;;;2.44;100.00
36828;BME280;22766;48.042;11.192;2023-11-22T10:58:51;95729.44;;;2.42;100.00
36828;BME280;22766;48.042;11.192;2023-11-22T11:01:19;95734.75;;;2.53;100.00
36828;BME280;22766;48.042;11.192;2023-11-22T11:06:34;95745.97;;;2.50;100.00
36828;BME280;22766;48.042;11.192;2023-11-22T11:09:02;95739.38;;;2.62;100.00
36828;BME280;22766;48.042;11.192;2023-11-22T11:11:34;95744.16;;;2.52;100.00
36828;BME280;22766;48.042;11.192;2023-11-22T11:14:02;95742.50;;;2.51;100.00
36828;BME280;22766;48.042;11.192;2023-11-22T11:16:30;95743.34;;;2.52;100.00
36828;BME280;22766;48.042;11.192;2023-11-22T11:18:59;95741.94;;;2.46;100.00
36828;BME280;22766;48.042;11.192;2023-11-22T11:21:26;95746.31;;;2.29;100.00
36828;BME280;22766;48.042;11.192;2023-11-22T11:23:54;95751.97;;;2.34;100.00
36828;BME280;22766;48.042;11.192;2023-11-22T11:26:25;95743.53;;;2.33;100.00
36828;BME280;22766;48.042;11.192;2023-11-22T11:28:52;95750.66;;;2.42;100.00
36828;BME280;22766;48.042;11.192;2023-11-22T11:31:21;95745.91;;;2.36;100.00
36828;BME280;22766;48.042;11.192;2023-11-22T11:36:37;95738.88;;;2.55;100.00
36828;BME280;22766;48.042;11.192;2023-11-22T11:39:06;95740.03;;;2.50;100.00
36828;BME280;22766;48.042;11.192;2023-11-22T11:41:41;95734.22;;;2.48;100.00
36828;BME280;22766;48.042;11.192;2023-11-22T11:44:09;95735.59;;;2.53;100.00
36828;BME280;22766;48.042;11.192;2023-11-22T11:46:37;95727.50;;;2.47;100.00
36828;BME280;22766;48.042;11.192;2023-11-22T11:49:10;95728.03;;;2.52;100.00
36828;BME280;22766;48.042;11.192;2023-11-22T11:51:39;95720.44;;;2.36;100.00
36828;BME280;22766;48.042;11.192;2023-11-22T11:54:06;95712.19;;;2.47;100.00
36828;BME280;22766;48.042;11.192;2023-11-22T11:56:34;95713.72;;;2.49;100.00
36828;BME280;22766;48.042;11.192;2023-11-22T11:59:02;95712.00;;;2.50;100.00
36828;BME280;22766;48.042;11.192;2023-11-22T12:01:30;95720.81;;;2.44;100.00
36828;BME280;22766;48.042;11.192;2023-11-22T12:04:01;95712.13;;;2.62;100.00
36828;BME280;22766;48.042;11.192;2023-11-22T12:06:28;95709.81;;;2.73;100.00
36828;BME280;22766;48.042;11.192;2023-11-22T12:08:56;95712.81;;;2.80;100.00
36828;BME280;22766;48.042;11.192;2023-11-22T12:11:23;95720.66;;;2.77;100.00
36828;BME280;22766;48.042;11.192;2023-11-22T12:13:50;95720.75;;;2.90;100.00
36828;BME280;22766;48.042;11.192;2023-11-22T12:16:18;95732.72;;;3.03;100.00
36828;BME280;22766;48.042;11.192;2023-11-22T12:18:46;95736.97;;;3.03;100.00
36828;BME280;22766;48.042;11.192;2023-11-22T12:21:16;95736.00;;;3.05;100.00
36828;BME280;22766;48.042;11.192;2023-11-22T12:23:45;95751.47;;;3.02;100.00
36828;BME280;22766;48.042;11.192;2023-11-22T12:26:19;95758.88;;;3.21;100.00
36828;BME280;22766;48.042;11.192;2023-11-22T12:28:48;95750.84;;;3.13;100.00
36828;BME280;22766;48.042;11.192;2023-11-22T12:31:29;95756.78;;;3.13;100.00
36828;BME280;22766;48.042;11.192;2023-11-22T12:34:03;95761.59;;;3.04;100.00
36828;BME280;22766;48.042;11.192;2023-11-22T12:36:33;95760.22;;;2.98;100.00
36828;BME280;22766;48.042;11.192;2023-11-22T12:39:00;95752.00;;;2.93;100.00
36828;BME280;22766;48.042;11.192;2023-11-22T12:41:30;95751.84;;;2.96;100.00
36828;BME280;22766;48.042;11.192;2023-11-22T12:44:06;95749.56;;;3.06;100.00
36828;BME280;22766;48.042;11.192;2023-11-22T12:47:04;95749.56;;;3.06;100.00
36828;BME280;22766;48.042;11.192;2023-11-22T12:49:46;95752.31;;;3.17;100.00
36828;BME280;22766;48.042;11.192;2023-11-22T12:52:13;95746.84;;;3.09;100.00
36828;BME280;22766;48.042;11.192;2023-11-22T12:54:40;95754.13;;;3.15;100.00
36828;BME280;22766;48.042;11.192;2023-11-22T12:57:10;95746.59;;;3.13;100.00
36828;BME280;22766;48.042;11.192;2023-11-22T12:59:39;95746.47;;;3.15;100.00